Time;durP1;ratioP1;P1;durP2;ratioP2;P2;SDS_P1;SDS_P2;PMS_P1;PMS_P2;Temp;Humidity;BMP_temperature;BMP_pressure;BME280_temperature;BME280_humidity;BME280_pressure;Samples;Min_cycle;Max_cycle;Signal;HPM_P1;HPM_P2
2022/05/05 00:01:37;;;;;;;8.30;2.90;;;20.10;63.40;;;;;;5046443;28;20038;-67
2022/05/05 00:04:03;;;;;;;8.15;2.88;;;20.10;63.50;;;;;;5042052;28;20418;-67
2022/05/05 00:06:29;;;;;;;6.00;2.63;;;20.10;63.40;;;;;;5040697;28;20025;-66
2022/05/05 00:08:55;;;;;;;6.25;2.80;;;20.10;63.40;;;;;;5044666;28;20055;-66
2022/05/05 00:14:23;;;;;;;7.68;3.03;;;20.10;63.50;;;;;;5042009;28;20037;-66
2022/05/05 00:17:06;;;;;;;6.18;2.50;;;20.10;63.40;;;;;;5035530;28;20382;-66
2022/05/05 00:19:35;;;;;;;5.07;2.47;;;20.10;63.50;;;;;;5047394;28;20026;-67
2022/05/05 00:22:01;;;;;;;6.60;2.47;;;20.00;63.40;;;;;;5044183;28;20452;-66
2022/05/05 00:24:27;;;;;;;7.15;2.63;;;20.10;63.40;;;;;;5038731;28;20415;-66
2022/05/05 00:26:53;;;;;;;6.45;2.80;;;20.00;63.40;;;;;;5038660;28;20037;-67
2022/05/05 00:29:19;;;;;;;5.50;2.80;;;20.00;63.40;;;;;;5046417;28;20359;-66
2022/05/05 00:31:45;;;;;;;7.22;2.88;;;20.00;63.40;;;;;;5047359;28;20096;-66
2022/05/05 00:34:10;;;;;;;6.10;2.70;;;20.00;63.40;;;;;;5044515;28;20624;-67
2022/05/05 00:36:36;;;;;;;6.00;2.70;;;20.00;63.50;;;;;;5041002;28;20067;-66
2022/05/05 00:39:02;;;;;;;6.65;2.78;;;20.00;63.40;;;;;;5042553;28;20028;-66
2022/05/05 00:41:34;;;;;;;6.75;2.72;;;20.00;63.50;;;;;;5038991;28;20432;-66
2022/05/05 00:44:04;;;;;;;6.00;2.70;;;20.00;63.40;;;;;;5044854;28;20037;-66
2022/05/05 00:46:30;;;;;;;6.18;2.67;;;20.00;63.50;;;;;;5044163;28;20029;-67
2022/05/05 00:48:56;;;;;;;4.80;2.42;;;20.00;63.40;;;;;;5050528;28;20524;-66
2022/05/05 00:51:21;;;;;;;6.57;2.50;;;20.00;63.50;;;;;;5041901;28;20037;-66
2022/05/05 00:53:47;;;;;;;5.38;2.40;;;20.00;63.50;;;;;;5033233;28;20043;-66
2022/05/05 00:56:14;;;;;;;6.60;2.88;;;20.00;63.50;;;;;;5049701;28;20029;-66
2022/05/05 00:58:40;;;;;;;6.63;3.00;;;20.00;63.30;;;;;;5033956;28;20033;-66
2022/05/05 01:01:06;;;;;;;4.20;2.33;;;20.00;63.30;;;;;;5036315;28;20083;-67
2022/05/05 01:03:32;;;;;;;5.25;2.40;;;20.00;63.30;;;;;;5040327;28;20063;-66
2022/05/05 01:05:58;;;;;;;6.20;2.70;;;19.90;63.20;;;;;;5035178;28;20017;-66
2022/05/05 01:08:24;;;;;;;7.78;2.65;;;19.90;63.30;;;;;;5038873;28;20099;-67
2022/05/05 01:10:49;;;;;;;6.95;2.38;;;19.90;63.30;;;;;;5037976;28;20057;-66
2022/05/05 01:13:15;;;;;;;6.03;2.65;;;19.90;63.30;;;;;;5047272;28;20111;-66
2022/05/05 01:15:41;;;;;;;6.78;2.83;;;19.90;63.30;;;;;;5046058;28;20020;-66
2022/05/05 01:18:07;;;;;;;4.80;2.30;;;19.90;63.30;;;;;;5039891;28;20028;-66
2022/05/05 01:20:32;;;;;;;5.53;2.30;;;19.90;63.30;;;;;;5043284;28;20025;-66
2022/05/05 01:22:58;;;;;;;5.07;2.50;;;19.90;63.40;;;;;;5053545;28;20512;-66
2022/05/05 01:28:11;;;;;;;4.83;2.50;;;19.90;63.30;;;;;;5039548;28;20567;-66
2022/05/05 01:30:38;;;;;;;5.43;2.50;;;19.90;63.30;;;;;;5039790;28;20698;-66
2022/05/05 01:33:17;;;;;;;5.82;2.45;;;19.90;63.30;;;;;;5032138;28;20029;-67
2022/05/05 01:35:44;;;;;;;5.97;2.50;;;19.80;63.20;;;;;;5036716;28;20505;-66
2022/05/05 01:38:13;;;;;;;5.57;2.70;;;19.80;63.20;;;;;;5037919;28;20397;-66
2022/05/05 01:40:39;;;;;;;3.95;2.20;;;19.80;63.20;;;;;;5035561;28;20025;-66
2022/05/05 01:43:08;;;;;;;5.65;2.20;;;19.90;63.30;;;;;;5039373;28;20036;-66
2022/05/05 01:45:34;;;;;;;4.40;2.20;;;19.80;63.20;;;;;;5038712;28;20036;-66
2022/05/05 01:48:00;;;;;;;4.40;2.30;;;19.80;63.20;;;;;;5034629;28;20036;-66
2022/05/05 01:50:25;;;;;;;4.93;2.42;;;19.80;63.20;;;;;;5041210;28;20382;-67
2022/05/05 01:52:54;;;;;;;4.57;2.15;;;19.80;63.30;;;;;;5034278;28;20078;-67
2022/05/05 01:55:20;;;;;;;6.50;2.58;;;19.80;63.20;;;;;;5040304;28;20057;-66
2022/05/05 01:57:46;;;;;;;5.45;2.30;;;19.80;63.30;;;;;;5043871;28;20028;-67
2022/05/05 02:00:12;;;;;;;5.28;2.42;;;19.80;63.20;;;;;;5038930;28;20543;-66
2022/05/05 02:02:38;;;;;;;4.68;2.10;;;19.70;63.20;;;;;;5034855;28;20071;-66
2022/05/05 02:05:04;;;;;;;4.40;2.15;;;19.80;63.20;;;;;;5041779;28;20733;-66
2022/05/05 02:07:30;;;;;;;6.40;2.40;;;19.80;63.30;;;;;;5044329;28;20041;-66
2022/05/05 02:09:55;;;;;;;5.95;2.40;;;19.80;63.30;;;;;;5041242;28;20043;-66
2022/05/05 02:12:21;;;;;;;5.18;2.08;;;19.80;63.40;;;;;;5038108;28;20032;-67
2022/05/05 02:14:47;;;;;;;3.90;2.17;;;19.80;63.30;;;;;;5034435;28;20450;-66
2022/05/05 02:17:12;;;;;;;6.20;2.30;;;19.70;63.20;;;;;;5031031;28;20533;-66
2022/05/05 02:19:39;;;;;;;4.65;2.40;;;19.80;63.30;;;;;;5033537;28;20105;-66
2022/05/05 02:22:05;;;;;;;5.90;2.22;;;19.80;63.30;;;;;;5044292;28;20331;-66
2022/05/05 02:24:31;;;;;;;4.93;2.42;;;19.70;63.30;;;;;;5036649;28;20559;-65
2022/05/05 02:26:57;;;;;;;4.75;2.30;;;19.70;63.30;;;;;;5035135;28;20044;-66
2022/05/05 02:29:22;;;;;;;3.55;2.20;;;19.70;63.30;;;;;;5035111;28;20038;-66
2022/05/05 02:31:48;;;;;;;4.05;2.10;;;19.70;63.30;;;;;;5036749;28;20088;-67
2022/05/05 02:34:14;;;;;;;5.00;2.30;;;19.70;63.30;;;;;;5039330;28;20382;-67
2022/05/05 02:39:23;;;;;;;3.60;2.15;;;19.70;63.30;;;;;;5037251;28;20082;-66
2022/05/05 02:41:49;;;;;;;5.35;2.20;;;19.70;63.30;;;;;;5029494;28;20045;-67
2022/05/05 02:44:14;;;;;;;4.85;2.20;;;19.70;63.30;;;;;;5037830;28;20509;-66
2022/05/05 02:46:40;;;;;;;5.30;2.10;;;19.70;63.30;;;;;;5038858;28;20044;-66
2022/05/05 02:49:06;;;;;;;5.93;2.00;;;19.70;63.40;;;;;;5042258;28;20043;-67
2022/05/05 02:51:31;;;;;;;5.30;2.00;;;19.70;63.40;;;;;;5038274;28;20391;-67
2022/05/05 02:56:41;;;;;;;3.20;1.98;;;19.70;63.50;;;;;;5034336;28;20544;-58
2022/05/05 02:59:06;;;;;;;3.80;2.08;;;19.70;63.40;;;;;;5042321;28;20037;-58
2022/05/05 03:01:32;;;;;;;3.97;2.05;;;19.60;63.30;;;;;;5049376;28;20108;-58
2022/05/05 03:03:58;;;;;;;3.95;2.00;;;19.60;63.40;;;;;;5041446;28;20072;-58
2022/05/05 03:06:24;;;;;;;4.00;2.15;;;19.60;63.40;;;;;;5037846;28;20485;-58
2022/05/05 03:08:50;;;;;;;4.00;2.05;;;19.60;63.40;;;;;;5033666;28;20130;-58
2022/05/05 03:11:15;;;;;;;3.28;2.05;;;19.60;63.40;;;;;;5040090;28;20033;-58
2022/05/05 03:13:41;;;;;;;4.03;2.13;;;19.60;63.40;;;;;;5047206;28;20018;-58
2022/05/05 03:16:06;;;;;;;3.70;2.10;;;19.60;63.40;;;;;;5048744;28;20335;-58
2022/05/05 03:18:32;;;;;;;3.63;2.00;;;19.60;63.40;;;;;;5043284;28;20181;-59
2022/05/05 03:20:58;;;;;;;4.07;1.92;;;19.60;63.40;;;;;;5042008;28;20378;-58
2022/05/05 03:23:23;;;;;;;4.30;2.17;;;19.60;63.40;;;;;;5035137;28;20057;-58
2022/05/05 03:25:49;;;;;;;3.28;2.03;;;19.60;63.40;;;;;;5045975;28;20528;-58
2022/05/05 03:28:15;;;;;;;4.18;1.90;;;19.60;63.40;;;;;;5042765;28;20044;-58
2022/05/05 03:30:41;;;;;;;5.10;2.00;;;19.60;63.40;;;;;;5043219;28;20024;-58
2022/05/05 03:33:07;;;;;;;3.38;1.98;;;19.60;63.50;;;;;;5040981;28;20544;-58
2022/05/05 03:35:33;;;;;;;4.35;2.00;;;19.60;63.40;;;;;;5040047;28;20122;-58
2022/05/05 03:37:59;;;;;;;3.65;2.00;;;19.60;63.50;;;;;;5039766;28;20064;-58
2022/05/05 03:40:25;;;;;;;5.72;2.10;;;19.60;63.50;;;;;;5048654;28;20509;-58
2022/05/05 03:42:51;;;;;;;4.40;2.08;;;19.60;63.50;;;;;;5046201;28;20025;-58
2022/05/05 03:45:17;;;;;;;5.40;2.15;;;19.50;63.50;;;;;;5033244;28;20051;-59
2022/05/05 03:47:42;;;;;;;4.70;1.98;;;19.60;63.50;;;;;;5036159;28;20096;-58
2022/05/05 03:50:09;;;;;;;5.63;2.03;;;19.60;63.50;;;;;;5042209;28;20033;-58
2022/05/05 03:52:34;;;;;;;4.47;1.95;;;19.50;63.50;;;;;;5037793;28;20032;-58
2022/05/05 03:55:00;;;;;;;4.78;2.20;;;19.50;63.50;;;;;;5032346;28;20029;-58
2022/05/05 03:57:25;;;;;;;4.18;2.10;;;19.50;63.50;;;;;;5036486;28;20029;-58
2022/05/05 03:59:51;;;;;;;5.68;2.45;;;19.50;63.60;;;;;;5039644;28;20079;-58
2022/05/05 04:02:17;;;;;;;5.55;2.20;;;19.50;63.50;;;;;;5040197;28;20061;-58
2022/05/05 04:04:43;;;;;;;6.57;2.00;;;19.50;63.60;;;;;;5044266;28;20022;-58
2022/05/05 04:07:08;;;;;;;4.82;2.10;;;19.50;63.60;;;;;;5067130;28;20055;-58
2022/05/05 04:09:34;;;;;;;4.18;2.00;;;19.50;63.70;;;;;;5035939;28;20041;-58
2022/05/05 04:12:00;;;;;;;5.10;2.30;;;19.50;63.70;;;;;;5040089;28;20032;-58
2022/05/05 04:14:25;;;;;;;3.30;1.85;;;19.50;63.70;;;;;;5038482;28;20038;-58
2022/05/05 04:16:52;;;;;;;5.85;2.10;;;19.50;63.80;;;;;;5045801;28;20480;-58
2022/05/05 04:19:17;;;;;;;4.10;2.28;;;19.50;63.80;;;;;;5067792;28;20079;-58
2022/05/05 04:21:43;;;;;;;3.83;1.90;;;19.50;63.80;;;;;;5034827;28;20033;-58
2022/05/05 04:24:09;;;;;;;8.93;2.25;;;19.50;63.80;;;;;;5037893;28;20025;-58
2022/05/05 04:26:34;;;;;;;6.53;2.10;;;19.50;63.80;;;;;;5040282;28;20046;-58
2022/05/05 04:29:00;;;;;;;5.43;2.20;;;19.40;63.80;;;;;;5040709;28;20043;-58
2022/05/05 04:31:28;;;;;;;4.20;2.10;;;19.40;63.90;;;;;;5032972;28;20399;-58
2022/05/05 04:33:54;;;;;;;5.00;2.10;;;19.40;63.90;;;;;;5044018;28;20102;-58
2022/05/05 04:36:20;;;;;;;7.38;2.10;;;19.40;63.90;;;;;;5034572;28;20037;-58
2022/05/05 04:38:45;;;;;;;4.78;2.10;;;19.40;64.00;;;;;;5049222;28;20028;-58
2022/05/05 04:41:11;;;;;;;3.95;2.05;;;19.40;64.10;;;;;;5041601;28;20398;-58
2022/05/05 04:43:36;;;;;;;3.45;2.05;;;19.40;64.10;;;;;;5044038;28;20509;-58
2022/05/05 04:46:02;;;;;;;6.55;2.10;;;19.40;64.00;;;;;;5039740;28;20049;-59
2022/05/05 04:48:28;;;;;;;5.63;2.25;;;19.40;64.10;;;;;;5038042;28;20078;-58
2022/05/05 04:50:53;;;;;;;4.95;1.83;;;19.40;64.00;;;;;;5035066;28;20025;-58
2022/05/05 04:53:19;;;;;;;6.45;2.17;;;19.40;64.00;;;;;;5031445;28;20371;-58
2022/05/05 04:55:45;;;;;;;6.78;2.10;;;19.40;64.00;;;;;;5040826;28;20064;-58
2022/05/05 04:58:10;;;;;;;7.10;2.10;;;19.40;64.10;;;;;;5043167;28;20020;-59
2022/05/05 05:00:36;;;;;;;5.40;2.10;;;19.40;64.80;;;;;;5044289;28;20413;-59
2022/05/05 05:03:02;;;;;;;5.53;2.00;;;19.40;64.90;;;;;;5042016;28;20025;-58
2022/05/05 05:05:27;;;;;;;7.65;2.30;;;19.40;64.90;;;;;;5047078;28;20095;-58
2022/05/05 05:07:53;;;;;;;7.57;2.25;;;19.40;64.90;;;;;;5036400;28;20490;-58
2022/05/05 05:10:19;;;;;;;5.95;2.00;;;19.40;65.00;;;;;;5033976;28;20082;-58
2022/05/05 05:12:44;;;;;;;6.15;2.13;;;19.40;65.00;;;;;;5042640;28;20054;-59
2022/05/05 05:15:10;;;;;;;6.68;2.13;;;19.40;64.80;;;;;;5042867;28;20123;-58
2022/05/05 05:17:36;;;;;;;5.90;1.80;;;19.40;64.70;;;;;;5037578;28;20031;-58
2022/05/05 05:20:03;;;;;;;4.95;1.90;;;19.40;65.00;;;;;;5041444;28;20095;-58
2022/05/05 05:22:29;;;;;;;6.78;2.20;;;19.40;65.10;;;;;;5038004;28;20361;-58
2022/05/05 05:24:54;;;;;;;7.90;2.30;;;19.40;64.80;;;;;;5037776;28;20060;-58
2022/05/05 05:27:20;;;;;;;7.25;2.35;;;19.40;65.10;;;;;;5037174;28;20381;-58
2022/05/05 05:29:46;;;;;;;10.90;2.63;;;19.40;65.20;;;;;;5038554;28;20040;-58
2022/05/05 05:32:11;;;;;;;7.47;2.20;;;19.40;65.20;;;;;;5043184;28;20025;-58
2022/05/05 05:34:37;;;;;;;7.68;2.20;;;19.40;65.30;;;;;;5046100;28;20108;-58
2022/05/05 05:37:03;;;;;;;8.32;2.30;;;19.40;65.40;;;;;;5037018;28;20060;-58
2022/05/05 05:39:30;;;;;;;8.38;2.25;;;19.40;65.40;;;;;;5036719;28;20399;-58
2022/05/05 05:41:56;;;;;;;9.02;2.38;;;19.40;65.50;;;;;;5036063;28;20438;-58
2022/05/05 05:44:21;;;;;;;12.98;2.38;;;19.40;65.50;;;;;;5039423;28;20044;-58
2022/05/05 05:46:47;;;;;;;6.25;2.40;;;19.40;65.50;;;;;;5039549;28;20037;-58
2022/05/05 05:49:13;;;;;;;8.70;2.22;;;19.30;65.50;;;;;;5038491;28;20049;-58
2022/05/05 05:51:38;;;;;;;8.65;2.20;;;19.30;65.50;;;;;;5034952;28;20029;-58
2022/05/05 05:54:04;;;;;;;8.13;2.20;;;19.40;65.50;;;;;;5034347;28;20320;-58
2022/05/05 05:56:30;;;;;;;7.47;2.45;;;19.30;65.40;;;;;;5044314;28;20100;-58
2022/05/05 05:58:56;;;;;;;6.55;2.05;;;19.40;65.50;;;;;;5040104;28;20040;-58
2022/05/05 06:03:53;;;;;;;9.68;2.50;;;19.30;65.40;;;;;;5044738;28;20066;-58
2022/05/05 06:04:09;;;;;;;10.90;2.67;;;19.30;65.30;;;;;;5050459;28;20037;-58
2022/05/05 06:06:35;;;;;;;7.88;2.20;;;19.30;65.30;;;;;;5037544;28;20086;-58
2022/05/05 06:09:00;;;;;;;5.78;2.10;;;19.30;65.30;;;;;;5040088;28;20381;-58
2022/05/05 06:11:26;;;;;;;8.77;2.40;;;19.30;65.30;;;;;;5039218;28;20346;-58
2022/05/05 06:13:52;;;;;;;7.00;2.22;;;19.30;65.30;;;;;;5034421;28;20052;-59
2022/05/05 06:16:17;;;;;;;6.47;1.95;;;19.30;65.30;;;;;;5044709;28;20029;-58
2022/05/05 06:18:43;;;;;;;5.82;1.75;;;19.30;65.30;;;;;;5037244;28;20031;-58
2022/05/05 06:21:09;;;;;;;4.78;2.00;;;19.30;65.30;;;;;;5037021;28;20068;-58
2022/05/05 06:23:37;;;;;;;7.22;2.20;;;19.30;65.30;;;;;;5034097;28;20037;-58
2022/05/05 06:26:05;;;;;;;6.40;2.17;;;19.30;65.40;;;;;;5029953;28;20038;-58
2022/05/05 06:28:33;;;;;;;8.70;2.08;;;19.30;65.30;;;;;;5037576;28;20029;-58
2022/05/05 06:30:59;;;;;;;5.93;2.20;;;19.30;65.40;;;;;;5036018;28;20028;-58
2022/05/05 06:33:25;;;;;;;9.30;2.15;;;19.30;65.40;;;;;;5035071;28;20033;-58
2022/05/05 06:35:50;;;;;;;7.15;2.22;;;19.30;65.40;;;;;;5039282;28;20456;-58
2022/05/05 06:38:16;;;;;;;6.63;2.08;;;19.30;65.30;;;;;;5038840;28;20037;-58
2022/05/05 06:40:42;;;;;;;5.85;1.98;;;19.30;65.20;;;;;;5038854;28;20030;-59
2022/05/05 06:43:08;;;;;;;7.88;2.17;;;19.30;65.20;;;;;;5044998;28;20052;-58
2022/05/05 06:45:33;;;;;;;7.45;2.20;;;19.30;65.20;;;;;;5041862;28;20044;-58
2022/05/05 06:48:01;;;;;;;7.32;2.28;;;19.30;65.20;;;;;;5035297;28;20040;-58
2022/05/05 06:50:28;;;;;;;10.20;2.35;;;19.30;65.20;;;;;;5036744;28;20021;-58
2022/05/05 06:52:53;;;;;;;5.97;2.10;;;19.30;65.10;;;;;;5041286;28;20482;-58
2022/05/05 06:55:19;;;;;;;7.97;2.08;;;19.30;65.10;;;;;;5044066;28;20029;-58
2022/05/05 06:57:46;;;;;;;5.75;1.95;;;19.30;65.10;;;;;;5043354;28;20523;-58
2022/05/05 07:00:12;;;;;;;8.20;2.10;;;19.30;65.10;;;;;;5037967;28;20029;-58
2022/05/05 07:02:38;;;;;;;7.15;2.15;;;19.30;65.10;;;;;;5068748;28;20132;-58
2022/05/05 07:07:48;;;;;;;6.13;1.90;;;19.30;65.10;;;;;;5034500;28;20490;-58
2022/05/05 07:12:58;;;;;;;5.28;1.80;;;19.40;65.20;;;;;;5045183;28;20109;-58
2022/05/05 07:15:24;;;;;;;6.63;2.00;;;19.40;65.20;;;;;;5038368;28;20029;-58
2022/05/05 07:17:49;;;;;;;7.65;2.15;;;19.40;65.20;;;;;;5035595;28;20397;-58
2022/05/05 07:20:15;;;;;;;6.32;2.00;;;19.40;65.20;;;;;;5044222;28;20318;-58
2022/05/05 07:22:41;;;;;;;5.28;2.10;;;19.40;65.20;;;;;;5043361;28;20104;-58
2022/05/05 07:25:07;;;;;;;8.82;2.10;;;19.40;65.20;;;;;;5042081;28;20562;-58
2022/05/05 07:27:33;;;;;;;6.63;2.15;;;19.40;65.10;;;;;;5068122;28;20409;-58
2022/05/05 07:29:59;;;;;;;9.38;2.10;;;19.40;65.10;;;;;;5037263;28;20041;-58
2022/05/05 07:32:24;;;;;;;8.27;2.08;;;19.40;65.00;;;;;;5040218;28;20021;-58
2022/05/05 07:34:50;;;;;;;8.15;2.13;;;19.40;65.10;;;;;;5045987;28;20029;-58
2022/05/05 07:37:15;;;;;;;7.47;2.13;;;19.40;65.10;;;;;;5042104;28;20497;-58
2022/05/05 07:39:41;;;;;;;5.50;2.10;;;19.40;65.10;;;;;;5043518;28;20115;-59
2022/05/05 07:42:08;;;;;;;6.22;2.00;;;19.40;65.00;;;;;;5039329;28;20021;-58
2022/05/05 07:44:34;;;;;;;6.22;2.17;;;19.40;65.00;;;;;;5039007;28;20046;-58
2022/05/05 07:46:59;;;;;;;6.72;2.22;;;19.50;65.10;;;;;;5040095;28;20087;-58
2022/05/05 07:49:25;;;;;;;5.95;2.03;;;19.40;65.10;;;;;;5047915;28;20564;-58
2022/05/05 07:51:53;;;;;;;7.32;2.67;;;19.40;65.00;;;;;;5042074;28;20041;-58
2022/05/05 07:54:34;;;;;;;8.93;2.17;;;19.40;65.00;;;;;;5038121;28;20030;-58
2022/05/05 07:57:01;;;;;;;8.35;2.30;;;19.40;65.00;;;;;;5036127;28;20055;-58
2022/05/05 07:59:26;;;;;;;8.05;2.30;;;19.40;65.00;;;;;;5036632;28;20562;-58
2022/05/05 08:01:52;;;;;;;6.70;1.98;;;19.40;65.00;;;;;;5042662;28;20100;-58
2022/05/05 08:04:17;;;;;;;9.05;2.40;;;19.40;64.90;;;;;;5041666;28;20029;-58
2022/05/05 08:06:43;;;;;;;5.82;2.08;;;19.50;65.10;;;;;;5039420;28;20025;-58
2022/05/05 08:09:09;;;;;;;7.55;1.90;;;19.50;65.00;;;;;;5035616;28;20036;-58
2022/05/05 08:11:36;;;;;;;5.70;2.17;;;19.40;65.00;;;;;;5038986;28;20033;-58
2022/05/05 08:14:03;;;;;;;5.15;1.80;;;19.50;65.00;;;;;;5044278;28;20060;-58
2022/05/05 08:16:28;;;;;;;5.15;1.90;;;19.50;65.00;;;;;;5045085;28;20026;-58
2022/05/05 08:18:54;;;;;;;7.25;2.20;;;19.50;65.10;;;;;;5042164;28;20523;-58
2022/05/05 08:21:19;;;;;;;6.97;2.10;;;19.50;65.00;;;;;;5036373;28;20062;-58
2022/05/05 08:23:45;;;;;;;5.82;1.88;;;19.50;65.10;;;;;;5043565;28;20021;-58
2022/05/05 08:28:55;;;;;;;7.00;2.25;;;19.50;65.10;;;;;;5043872;28;20088;-58
2022/05/05 08:31:20;;;;;;;4.75;2.10;;;19.60;65.20;;;;;;5040501;28;20029;-58
2022/05/05 08:33:47;;;;;;;7.25;1.90;;;19.60;65.20;;;;;;5040624;28;20033;-58
2022/05/05 08:36:13;;;;;;;5.60;2.10;;;19.60;65.20;;;;;;5036497;28;20394;-58
2022/05/05 08:38:38;;;;;;;7.20;2.33;;;19.60;65.20;;;;;;5038220;28;20091;-58
2022/05/05 08:41:04;;;;;;;5.35;2.20;;;19.60;65.10;;;;;;5039742;28;20429;-58
2022/05/05 08:43:30;;;;;;;5.72;2.10;;;19.60;65.10;;;;;;5074743;28;20083;-58
2022/05/05 08:45:57;;;;;;;4.35;1.98;;;19.60;65.10;;;;;;5034422;28;20112;-58
2022/05/05 08:48:23;;;;;;;6.60;2.17;;;19.60;65.10;;;;;;5035725;28;20559;-58
2022/05/05 08:50:55;;;;;;;5.80;2.13;;;19.60;65.10;;;;;;5038566;28;20025;-58
2022/05/05 08:53:21;;;;;;;5.22;2.08;;;19.60;65.00;;;;;;5037443;28;20029;-58
2022/05/05 08:55:47;;;;;;;5.50;2.35;;;19.70;65.10;;;;;;5044923;28;20390;-58
2022/05/05 08:58:13;;;;;;;8.38;2.20;;;19.70;65.00;;;;;;5041919;28;20029;-58
2022/05/05 09:00:38;;;;;;;6.10;1.88;;;19.70;65.00;;;;;;5040937;28;20405;-58
2022/05/05 09:03:04;;;;;;;8.48;2.60;;;19.70;65.10;;;;;;5034458;28;20033;-58
2022/05/05 09:05:42;;;;;;;6.07;2.00;;;19.70;65.00;;;;;;5036413;28;20029;-58
2022/05/05 09:08:11;;;;;;;4.18;1.90;;;19.70;65.00;;;;;;5049833;28;20442;-59
2022/05/05 09:10:44;;;;;;;7.90;2.10;;;19.70;64.90;;;;;;5043445;28;20033;-58
2022/05/05 09:13:10;;;;;;;7.85;2.30;;;19.70;64.80;;;;;;5041622;28;20040;-58
2022/05/05 09:15:36;;;;;;;5.28;2.08;;;19.80;64.90;;;;;;5039487;28;20025;-58
2022/05/05 09:18:11;;;;;;;10.80;2.20;;;19.70;64.80;;;;;;5039320;28;20029;-58
2022/05/05 09:20:37;;;;;;;5.55;1.88;;;19.80;64.90;;;;;;5040320;28;20383;-58
2022/05/05 09:23:03;;;;;;;5.97;2.00;;;19.80;64.80;;;;;;5039199;28;20104;-58
2022/05/05 09:25:46;;;;;;;7.35;2.10;;;19.80;64.80;;;;;;5068482;28;20037;-58
2022/05/05 09:28:16;;;;;;;5.78;2.08;;;19.80;64.70;;;;;;5041594;28;20036;-58
2022/05/05 09:30:49;;;;;;;4.55;1.73;;;19.80;64.90;;;;;;5042081;28;20120;-58
2022/05/05 09:33:17;;;;;;;7.45;2.00;;;19.80;64.80;;;;;;5035736;28;20456;-58
2022/05/05 09:35:49;;;;;;;7.45;2.00;;;19.90;64.70;;;;;;5058139;28;20027;-58
2022/05/05 09:38:14;;;;;;;6.30;2.17;;;19.80;64.70;;;;;;5052785;28;20067;-58
2022/05/05 09:40:40;;;;;;;4.68;1.98;;;19.80;64.60;;;;;;5030132;28;20490;-58
2022/05/05 09:43:11;;;;;;;6.53;1.90;;;19.90;64.70;;;;;;5046112;28;20024;-58
2022/05/05 09:45:36;;;;;;;7.50;2.03;;;19.90;64.70;;;;;;5068162;28;20068;-58
2022/05/05 09:48:03;;;;;;;5.35;2.13;;;19.90;64.60;;;;;;5035197;28;20037;-58
2022/05/05 09:50:32;;;;;;;4.82;2.20;;;19.90;64.60;;;;;;5037649;28;20060;-58
2022/05/05 09:58:37;;;;;;;5.18;2.00;;;19.90;64.60;;;;;;5041029;28;20108;-58
2022/05/05 10:01:10;;;;;;;6.82;2.05;;;19.90;64.50;;;;;;5038218;28;20030;-58
2022/05/05 10:06:30;;;;;;;4.25;1.80;;;20.00;64.50;;;;;;5033773;28;20460;-58
2022/05/05 10:08:59;;;;;;;4.70;2.00;;;20.00;64.40;;;;;;5035961;28;20489;-58
2022/05/05 10:11:25;;;;;;;4.70;2.10;;;20.00;64.40;;;;;;5029271;28;20021;-58
2022/05/05 10:13:50;;;;;;;3.25;1.77;;;20.00;64.40;;;;;;5041242;28;20037;-58
2022/05/05 10:16:17;;;;;;;5.20;1.80;;;20.00;64.30;;;;;;5036557;28;20029;-58
2022/05/05 10:18:43;;;;;;;5.10;1.95;;;20.00;64.20;;;;;;5065462;28;20570;-58
2022/05/05 10:21:13;;;;;;;4.32;1.83;;;20.00;64.20;;;;;;5039231;28;20282;-59
2022/05/05 10:24:00;;;;;;;6.03;2.03;;;20.00;64.30;;;;;;5029980;28;20048;-58
2022/05/05 10:26:26;;;;;;;3.45;1.60;;;20.10;64.30;;;;;;5033126;28;20033;-58
2022/05/05 10:28:52;;;;;;;4.43;1.85;;;20.10;64.20;;;;;;5047899;28;20044;-58
2022/05/05 10:31:30;;;;;;;6.13;1.90;;;20.10;64.20;;;;;;5042493;28;20148;-58
2022/05/05 10:33:59;;;;;;;4.63;1.75;;;20.10;64.20;;;;;;5037423;28;20056;-58
2022/05/05 10:36:25;;;;;;;5.20;1.70;;;20.10;64.10;;;;;;5035881;28;20041;-58
2022/05/05 10:38:52;;;;;;;3.80;1.83;;;20.10;64.10;;;;;;5036606;28;20037;-58
2022/05/05 10:41:39;;;;;;;3.30;1.70;;;20.10;64.00;;;;;;5035573;28;20033;-58
2022/05/05 10:44:16;;;;;;;7.68;2.03;;;20.20;64.10;;;;;;5036815;28;20068;-58
2022/05/05 10:47:02;;;;;;;5.40;2.15;;;20.10;64.00;;;;;;5048200;28;20390;-58
2022/05/05 10:49:33;;;;;;;4.32;1.50;;;20.20;64.10;;;;;;5044949;28;20095;-58
2022/05/05 10:52:16;;;;;;;5.25;1.85;;;20.20;64.10;;;;;;5040879;28;20028;-58
2022/05/05 10:54:46;;;;;;;4.25;2.00;;;20.20;63.90;;;;;;5038589;28;20154;-58
2022/05/05 10:57:27;;;;;;;4.80;1.70;;;20.20;63.90;;;;;;5034539;28;20059;-58
2022/05/05 11:00:08;;;;;;;5.07;1.88;;;20.20;63.90;;;;;;5029566;28;20026;-57
2022/05/05 11:02:35;;;;;;;4.68;1.70;;;20.20;63.80;;;;;;5033775;28;20041;-58
2022/05/05 11:05:24;;;;;;;4.15;1.92;;;20.20;63.70;;;;;;5042719;28;20048;-58
2022/05/05 11:07:49;;;;;;;3.55;1.80;;;20.20;63.70;;;;;;5039464;28;20025;-58
2022/05/05 11:10:37;;;;;;;4.10;1.90;;;20.20;63.70;;;;;;5038122;28;20422;-58
2022/05/05 11:13:02;;;;;;;4.20;1.80;;;20.30;63.70;;;;;;5037659;28;20082;-58
2022/05/05 11:21:33;;;;;;;3.88;1.80;;;20.30;63.60;;;;;;5029833;28;20140;-58
2022/05/05 11:24:00;;;;;;;4.80;1.77;;;20.30;63.50;;;;;;5029424;28;20027;-58
2022/05/05 11:26:26;;;;;;;4.15;1.83;;;20.40;63.50;;;;;;5034903;28;20025;-58
2022/05/05 11:28:51;;;;;;;3.15;1.60;;;20.30;63.50;;;;;;5045559;28;20091;-58
2022/05/05 11:31:19;;;;;;;2.67;1.50;;;20.40;63.60;;;;;;5035621;28;20029;-58
2022/05/05 11:33:54;;;;;;;3.53;1.73;;;20.40;63.60;;;;;;5039206;28;20031;-58
2022/05/05 11:36:19;;;;;;;4.30;1.67;;;20.40;63.60;;;;;;5040988;28;20577;-58
2022/05/05 11:38:45;;;;;;;2.85;1.90;;;20.40;63.50;;;;;;5045524;28;20100;-58
2022/05/05 11:41:11;;;;;;;4.38;1.90;;;20.40;63.50;;;;;;5046939;28;20028;-58
2022/05/05 11:46:21;;;;;;;4.78;2.08;;;20.50;63.50;;;;;;5042956;28;20060;-58
2022/05/05 11:48:56;;;;;;;3.42;1.83;;;20.50;63.50;;;;;;5042518;28;20040;-59
2022/05/05 11:51:32;;;;;;;3.42;1.70;;;20.50;63.50;;;;;;5034743;28;20456;-58
2022/05/05 11:54:03;;;;;;;3.00;1.88;;;20.50;63.50;;;;;;5035660;28;20014;-58
2022/05/05 11:56:29;;;;;;;4.20;1.80;;;20.50;63.40;;;;;;5038696;28;20036;-58
2022/05/05 12:01:41;;;;;;;2.70;1.63;;;20.60;63.30;;;;;;5035618;28;20111;-58
2022/05/05 12:04:08;;;;;;;3.15;1.70;;;20.60;63.30;;;;;;5037950;28;20068;-58
2022/05/05 12:06:35;;;;;;;2.35;1.52;;;20.60;63.30;;;;;;5042632;28;20566;-58
2022/05/05 12:09:01;;;;;;;2.42;1.30;;;20.60;63.20;;;;;;5044643;28;20044;-58
2022/05/05 12:11:27;;;;;;;2.85;1.67;;;20.60;63.20;;;;;;5034446;28;20040;-58
2022/05/05 12:13:59;;;;;;;3.55;1.80;;;20.70;63.10;;;;;;5044528;28;20503;-59
2022/05/05 12:16:30;;;;;;;4.25;1.90;;;20.70;63.20;;;;;;5036249;28;20034;-58
2022/05/05 12:18:56;;;;;;;2.50;1.60;;;20.70;63.10;;;;;;5047254;28;20040;-58
2022/05/05 12:21:22;;;;;;;2.38;1.50;;;20.70;63.10;;;;;;5045282;28;20017;-58
2022/05/05 12:24:04;;;;;;;2.80;1.75;;;20.80;63.10;;;;;;5035505;28;20518;-58
2022/05/05 12:26:32;;;;;;;3.70;1.90;;;20.80;63.10;;;;;;5037886;28;20083;-58
2022/05/05 12:28:58;;;;;;;4.10;1.77;;;20.80;63.00;;;;;;5037184;28;20040;-58
2022/05/05 12:31:24;;;;;;;4.28;1.67;;;20.80;63.00;;;;;;5035753;28;20014;-58
2022/05/05 12:33:50;;;;;;;2.65;1.70;;;20.80;62.90;;;;;;5039707;28;20028;-59
2022/05/05 12:36:19;;;;;;;2.53;1.65;;;20.90;62.90;;;;;;5033558;28;20535;-58
2022/05/05 12:38:45;;;;;;;3.85;1.80;;;20.90;62.90;;;;;;5038166;28;20033;-58
2022/05/05 12:41:11;;;;;;;3.30;1.70;;;20.90;62.90;;;;;;5047812;28;20549;-58
2022/05/05 12:43:38;;;;;;;3.58;1.70;;;20.90;62.80;;;;;;5041081;28;20240;-59
2022/05/05 12:46:04;;;;;;;2.95;1.55;;;20.90;62.80;;;;;;5028828;28;20473;-58
2022/05/05 12:48:30;;;;;;;3.33;1.60;;;21.00;62.70;;;;;;5038547;28;20025;-58
2022/05/05 12:50:56;;;;;;;4.13;1.60;;;20.90;62.60;;;;;;5035618;28;20447;-58
2022/05/05 13:01:44;;;;;;;;;;;21.00;62.50;;;;;;5042637;28;20040;-58
2022/05/05 13:04:14;;;;;;;4.13;1.60;;;21.00;62.50;;;;;;5044614;28;19915;-59
2022/05/05 13:06:41;;;;;;;3.75;1.60;;;21.10;62.50;;;;;;5040272;28;20033;-58
2022/05/05 13:09:08;;;;;;;3.22;1.80;;;21.10;62.40;;;;;;5035681;28;20046;-58
2022/05/05 13:11:37;;;;;;;2.55;1.65;;;21.10;62.30;;;;;;5034006;28;20052;-58
2022/05/05 13:14:03;;;;;;;3.45;1.67;;;21.10;62.30;;;;;;5051803;28;20033;-59
2022/05/05 13:16:29;;;;;;;2.22;1.50;;;21.10;62.30;;;;;;5038175;28;20406;-59
2022/05/05 13:18:57;;;;;;;3.65;1.60;;;21.20;62.20;;;;;;5040387;28;20107;-58
2022/05/05 13:21:23;;;;;;;4.07;1.52;;;21.20;62.20;;;;;;5037175;28;20489;-59
2022/05/05 13:23:48;;;;;;;4.90;1.55;;;21.20;62.10;;;;;;5041862;28;20057;-59
2022/05/05 13:26:14;;;;;;;3.28;1.67;;;21.20;62.10;;;;;;5042073;28;20086;-58
2022/05/05 13:28:40;;;;;;;2.25;1.50;;;21.20;62.10;;;;;;5046309;28;20037;-58
2022/05/05 13:31:05;;;;;;;2.67;1.60;;;21.20;62.10;;;;;;5039268;28;20071;-59
2022/05/05 13:33:31;;;;;;;3.25;1.60;;;21.30;62.20;;;;;;5036738;28;20511;-59
2022/05/05 13:35:56;;;;;;;3.63;1.77;;;21.30;62.10;;;;;;5032161;28;20033;-59